Ince-in-Makerfield, United Kingdom
Current Conditions -  °F | °C
As of 5:50 PM on Friday 28 Nov 2014 (Local Time) from EGGP Reporting Station
Broken Clouds Broken Clouds  
Wind Chill: 52°   Ceiling: 1700
Heat Index: 52°   Visibility: 6mi
Dew Point: 48°   Wind: 12mph
Humidity: 88%   Direction: 80°E
Pressure: 29.71"   Gusts: NA
Location:  53.53°N, 2.62°W
Report Text: EGGP 281750Z 08010KT 9999 BKN017 11/09 Q1006
Loading
Personal Weather Stations






























Interactive Weather Map New forecast layout! Learn more

10-Day Weather Forecast

Advertisements
Track Severe Weather on mobile